Time;durP1;ratioP1;P1;durP2;ratioP2;P2;SDS_P1;SDS_P2;PMS_P1;PMS_P2;Temp;Humidity;BMP_temperature;BMP_pressure;BME280_temperature;BME280_humidity;BME280_pressure;Samples;Min_cycle;Max_cycle;Signal;HPM_P1;HPM_P2
2022/12/08 00:01:17;;;;;;;17.33;6.05;;;1.30;1.00;;;;;;5050043;28;20748;-60
2022/12/08 00:03:43;;;;;;;14.13;6.20;;;1.30;1.00;;;;;;5049123;28;20389;-60
2022/12/08 00:09:28;;;;;;;15.05;6.80;;;1.40;1.00;;;;;;5050319;28;20945;-60
2022/12/08 00:11:59;;;;;;;14.38;5.60;;;1.40;1.00;;;;;;5049359;28;20377;-60
2022/12/08 00:14:34;;;;;;;16.02;6.53;;;1.40;1.00;;;;;;5050101;28;20381;-60
2022/12/08 00:17:02;;;;;;;14.30;6.15;;;1.40;1.00;;;;;;5050232;28;20466;-61
2022/12/08 00:19:28;;;;;;;12.50;6.15;;;1.40;1.00;;;;;;5049879;28;20854;-60
2022/12/08 00:21:54;;;;;;;13.52;5.50;;;1.50;15.80;;;;;;5049631;28;20381;-60
2022/12/08 00:24:21;;;;;;;16.23;6.18;;;1.50;1.00;;;;;;5049879;28;20474;-60
2022/12/08 00:26:47;;;;;;;15.43;5.70;;;1.50;1.00;;;;;;5049177;28;20381;-61
2022/12/08 00:29:13;;;;;;;14.35;6.10;;;1.60;47.80;;;;;;5050185;28;20374;-61
2022/12/08 00:31:39;;;;;;;15.00;6.97;;;1.60;99.90;;;;;;5049266;28;20423;-61
2022/12/08 00:34:05;;;;;;;19.03;6.90;;;1.60;99.90;;;;;;5050188;28;20377;-61
2022/12/08 00:36:31;;;;;;;14.07;6.38;;;3.30;99.40;;;;;;5050454;28;20413;-60
2022/12/08 00:38:56;;;;;;;17.38;7.20;;;1.60;99.90;;;;;;5053491;28;20860;-60
2022/12/08 00:44:11;;;;;;;14.80;6.45;;;1.70;99.90;;;;;;5053717;28;20916;-61
2022/12/08 00:46:36;;;;;;;17.20;7.65;;;1.70;18.70;;;;;;5053321;28;20403;-61
2022/12/08 00:49:03;;;;;;;14.05;5.95;;;1.80;1.00;;;;;;5054037;28;20416;-61
2022/12/08 00:51:29;;;;;;;16.02;6.60;;;1.80;1.00;;;;;;5053618;28;20468;-61
2022/12/08 00:53:55;;;;;;;13.85;6.25;;;1.80;1.00;;;;;;5052656;28;20716;-61
2022/12/08 00:56:21;;;;;;;14.83;7.00;;;1.80;1.00;;;;;;5053460;28;20385;-61
2022/12/08 00:58:46;;;;;;;14.57;6.90;;;1.80;1.00;;;;;;5052687;28;20435;-61
2022/12/08 01:01:13;;;;;;;17.20;7.65;;;1.80;1.00;;;;;;5052351;28;20420;-61
2022/12/08 01:03:40;;;;;;;16.52;7.20;;;1.80;1.00;;;;;;5052978;28;20462;-61
2022/12/08 01:06:07;;;;;;;13.85;6.25;;;1.80;1.00;;;;;;5053539;28;20412;-61
2022/12/08 01:08:34;;;;;;;15.20;6.73;;;1.80;99.90;;;;;;5053053;28;20416;-61
2022/12/08 01:11:05;;;;;;;14.50;7.22;;;1.70;1.00;;;;;;5052566;28;20882;-61
2022/12/08 01:13:30;;;;;;;14.63;6.40;;;1.70;1.00;;;;;;5051782;28;20472;-61
2022/12/08 01:15:56;;;;;;;19.30;7.55;;;1.60;1.00;;;;;;5052396;28;20463;-61
2022/12/08 01:18:22;;;;;;;15.88;7.65;;;1.50;1.00;;;;;;5053218;28;20400;-61
2022/12/08 01:20:47;;;;;;;12.63;6.07;;;1.50;99.90;;;;;;5051883;28;20854;-62
2022/12/08 01:23:13;;;;;;;15.10;6.90;;;1.40;99.90;;;;;;5053083;28;20393;-61
2022/12/08 01:25:38;;;;;;;15.83;6.73;;;1.40;1.00;;;;;;5052042;28;20445;-61
2022/12/08 01:28:04;;;;;;;16.93;7.60;;;1.50;1.00;;;;;;5053230;28;20831;-61
2022/12/08 01:30:29;;;;;;;12.35;6.68;;;1.40;1.00;;;;;;5052946;28;20424;-61
2022/12/08 01:32:56;;;;;;;20.50;6.50;;;1.40;1.00;;;;;;5052047;28;20734;-62
2022/12/08 01:35:22;;;;;;;14.85;6.65;;;1.50;1.00;;;;;;5052794;28;20397;-61
2022/12/08 01:37:49;;;;;;;15.55;6.40;;;1.40;1.00;;;;;;5052512;28;20381;-66
2022/12/08 01:40:15;;;;;;;15.52;7.10;;;1.30;1.00;;;;;;5053132;28;20377;-61
2022/12/08 01:42:40;;;;;;;14.18;5.80;;;1.40;1.00;;;;;;5051934;28;20392;-60
2022/12/08 01:45:14;;;;;;;15.53;6.50;;;1.40;1.00;;;;;;5052365;28;20393;-62
2022/12/08 01:47:44;;;;;;;14.05;5.82;;;1.40;1.00;;;;;;5052277;28;20424;-60
2022/12/08 01:50:11;;;;;;;14.30;6.25;;;1.40;1.00;;;;;;5052295;28;20393;-62
2022/12/08 01:52:43;;;;;;;16.13;6.63;;;1.30;1.00;;;;;;5052246;28;20373;-62
2022/12/08 01:55:41;;;;;;;12.55;5.88;;;1.30;1.00;;;;;;5052752;28;20847;-60
2022/12/08 01:58:19;;;;;;;14.35;6.43;;;2.00;1.00;;;;;;5044199;28;20396;-60
2022/12/08 02:00:45;;;;;;;12.23;6.00;;;1.30;1.00;;;;;;5051477;28;20436;-60
2022/12/08 02:03:17;;;;;;;14.50;6.45;;;2.20;1.00;;;;;;5051896;28;20918;-60
2022/12/08 02:05:43;;;;;;;14.85;6.50;;;1.20;1.00;;;;;;5049982;28;20409;-60
2022/12/08 02:08:11;;;;;;;13.05;5.60;;;1.20;1.00;;;;;;5052508;28;20974;-60
2022/12/08 02:10:39;;;;;;;15.77;7.13;;;1.20;1.00;;;;;;5051922;28;20531;-64
2022/12/08 02:13:08;;;;;;;14.23;5.83;;;1.10;1.00;;;;;;5052311;28;20903;-60
2022/12/08 02:15:50;;;;;;;15.63;6.65;;;1.10;49.70;;;;;;5052564;28;20475;-60
2022/12/08 02:18:34;;;;;;;21.35;6.13;;;1.20;2.50;;;;;;5052703;28;20422;-60
2022/12/08 02:21:15;;;;;;;16.10;6.70;;;1.20;71.00;;;;;;5051842;28;20374;-60
2022/12/08 02:24:18;;;;;;;15.10;6.40;;;1.20;55.00;;;;;;5051348;28;20748;-60
2022/12/08 02:27:21;;;;;;;20.88;6.72;;;1.20;99.90;;;;;;5051045;28;20381;-60
2022/12/08 02:29:50;;;;;;;17.30;8.07;;;1.20;1.00;;;;;;5051808;28;20862;-60
2022/12/08 02:32:33;;;;;;;17.52;7.03;;;1.20;1.40;;;;;;5052091;28;20487;-61
2022/12/08 02:35:01;;;;;;;14.38;6.88;;;1.20;1.00;;;;;;5051022;28;20493;-60
2022/12/08 02:37:32;;;;;;;13.30;5.32;;;1.10;1.00;;;;;;5050931;28;20793;-60
2022/12/08 02:40:23;;;;;;;15.45;6.90;;;1.10;1.00;;;;;;5051438;28;20400;-61
2022/12/08 02:42:57;;;;;;;16.48;6.50;;;1.10;42.20;;;;;;5051222;28;20393;-60
2022/12/08 02:45:38;;;;;;;14.23;6.20;;;1.10;51.20;;;;;;5051454;28;20406;-60
2022/12/08 02:48:04;;;;;;;14.38;6.20;;;1.10;51.10;;;;;;5051349;28;20480;-60
2022/12/08 02:50:30;;;;;;;14.52;6.32;;;1.20;1.00;;;;;;5052049;28;20385;-60
2022/12/08 02:52:56;;;;;;;16.70;6.43;;;1.10;1.00;;;;;;5050860;28;20388;-60
2022/12/08 02:55:30;;;;;;;14.63;6.68;;;1.10;1.00;;;;;;5051452;28;20381;-60
2022/12/08 02:58:17;;;;;;;14.20;6.60;;;1.00;1.00;;;;;;5051396;28;21386;-60
2022/12/08 03:01:01;;;;;;;13.80;6.53;;;1.00;1.00;;;;;;5049677;28;20885;-60
2022/12/08 03:03:44;;;;;;;13.40;5.90;;;1.00;1.00;;;;;;5051548;28;20428;-60
2022/12/08 03:06:20;;;;;;;14.88;6.63;;;0.00;1.00;;;;;;5051490;28;20416;-60
2022/12/08 03:08:59;;;;;;;15.00;6.00;;;0.90;1.00;;;;;;5051108;28;20374;-63
2022/12/08 03:11:57;;;;;;;15.27;6.03;;;0.90;1.00;;;;;;5033831;28;20408;-61
2022/12/08 03:14:23;;;;;;;15.90;6.80;;;0.70;99.90;;;;;;5000819;28;20402;-61
2022/12/08 03:16:54;;;;;;;15.27;6.07;;;0.60;99.90;;;;;;5048923;28;20385;-61
2022/12/08 03:19:31;;;;;;;16.48;7.20;;;0.70;99.90;;;;;;5051577;28;20881;-60
2022/12/08 03:22:01;;;;;;;14.82;6.18;;;0.70;99.90;;;;;;5050171;28;20393;-62
2022/12/08 03:24:29;;;;;;;13.68;6.25;;;0.80;99.90;;;;;;5050869;28;20397;-62
2022/12/08 03:27:03;;;;;;;16.60;6.28;;;0.80;99.90;;;;;;5049939;28;20502;-62
2022/12/08 03:29:31;;;;;;;13.38;6.13;;;0.70;99.90;;;;;;5050615;28;20452;-62
2022/12/08 03:32:05;;;;;;;14.73;6.60;;;0.80;99.90;;;;;;5050019;28;20378;-59
2022/12/08 03:34:31;;;;;;;12.85;5.65;;;0.80;99.90;;;;;;5050996;28;20409;-59
2022/12/08 03:37:01;;;;;;;14.75;6.47;;;0.80;99.90;;;;;;5049996;28;20405;-59
2022/12/08 03:39:26;;;;;;;14.57;6.40;;;0.70;54.60;;;;;;5033198;28;20377;-60
2022/12/08 03:41:52;;;;;;;15.50;6.82;;;0.70;99.90;;;;;;5049878;28;20875;-59
2022/12/08 03:44:18;;;;;;;14.10;6.00;;;0.60;99.90;;;;;;5050870;28;20397;-60
2022/12/08 03:46:44;;;;;;;15.90;6.80;;;2.00;99.90;;;;;;5049408;28;20385;-60
2022/12/08 03:49:10;;;;;;;14.13;5.88;;;0.60;99.90;;;;;;5050077;28;20378;-59
2022/12/08 03:51:36;;;;;;;15.18;5.93;;;0.60;99.90;;;;;;5050191;28;20393;-60
2022/12/08 03:54:02;;;;;;;13.65;5.25;;;0.90;99.90;;;;;;5049157;28;20919;-59
2022/12/08 03:56:31;;;;;;;15.45;5.80;;;0.50;99.90;;;;;;5050201;28;20398;-60
2022/12/08 03:58:57;;;;;;;12.90;5.33;;;0.50;99.90;;;;;;5049222;28;20384;-59
2022/12/08 04:01:23;;;;;;;14.17;6.07;;;0.60;99.90;;;;;;5050187;28;20377;-60
2022/12/08 04:03:49;;;;;;;12.63;5.80;;;0.60;99.90;;;;;;5049282;28;20720;-61
2022/12/08 04:06:16;;;;;;;11.90;5.30;;;0.50;99.90;;;;;;5050021;28;20413;-60
2022/12/08 04:08:41;;;;;;;12.90;5.70;;;0.50;99.90;;;;;;5049330;28;20388;-61
2022/12/08 04:11:08;;;;;;;15.45;7.40;;;0.50;99.90;;;;;;5049312;28;20468;-60
2022/12/08 04:13:35;;;;;;;14.77;6.60;;;0.50;99.90;;;;;;5050495;28;20403;-60
2022/12/08 04:16:01;;;;;;;15.00;6.40;;;1.70;99.90;;;;;;5048901;28;20381;-60
2022/12/08 04:18:27;;;;;;;24.17;6.63;;;0.60;99.90;;;;;;5049718;28;20392;-60
2022/12/08 04:20:52;;;;;;;16.10;6.77;;;0.50;99.90;;;;;;5049625;28;20378;-60
2022/12/08 04:23:18;;;;;;;13.85;6.43;;;1.70;99.90;;;;;;5049748;28;20839;-60
2022/12/08 04:25:44;;;;;;;15.80;6.00;;;0.60;99.90;;;;;;5048863;28;20416;-61
2022/12/08 04:28:09;;;;;;;15.50;6.53;;;0.70;99.90;;;;;;5050172;28;20961;-60
2022/12/08 04:30:35;;;;;;;15.35;6.15;;;0.70;99.90;;;;;;5050241;28;20838;-61
2022/12/08 04:33:01;;;;;;;14.93;6.45;;;0.70;99.90;;;;;;5049342;28;20376;-61
2022/12/08 04:35:27;;;;;;;14.05;6.05;;;0.70;99.90;;;;;;5049820;28;20464;-60
2022/12/08 04:37:53;;;;;;;12.90;5.28;;;0.60;99.90;;;;;;5048964;28;20874;-61
2022/12/08 04:40:19;;;;;;;12.00;6.30;;;0.60;99.90;;;;;;5049633;28;20382;-60
2022/12/08 04:42:46;;;;;;;14.15;6.60;;;0.60;99.90;;;;;;5048484;28;20377;-60
2022/12/08 04:45:11;;;;;;;13.88;5.60;;;0.80;99.90;;;;;;5049218;28;20402;-60
2022/12/08 04:47:37;;;;;;;14.77;5.83;;;0.80;99.90;;;;;;5049893;28;20378;-60
2022/12/08 04:50:04;;;;;;;12.55;6.00;;;0.90;99.90;;;;;;5049003;28;20839;-60
2022/12/08 04:52:29;;;;;;;15.45;5.68;;;0.90;99.90;;;;;;5049312;28;20386;-60
2022/12/08 04:54:55;;;;;;;12.93;5.00;;;1.40;99.90;;;;;;5048624;28;20378;-60
2022/12/08 04:57:20;;;;;;;12.45;5.30;;;0.90;99.90;;;;;;5049378;28;20385;-61
2022/12/08 04:59:47;;;;;;;12.93;5.90;;;0.90;99.90;;;;;;5048669;28;20466;-60
2022/12/08 05:02:12;;;;;;;11.23;5.50;;;1.00;99.90;;;;;;5049373;28;20464;-60
2022/12/08 05:04:38;;;;;;;12.17;4.80;;;1.00;99.90;;;;;;5049550;28;20528;-60
2022/12/08 05:07:04;;;;;;;14.02;4.90;;;0.90;44.70;;;;;;5048873;28;20397;-60
2022/12/08 05:09:29;;;;;;;14.60;5.20;;;1.00;99.90;;;;;;5049670;28;20401;-61
2022/12/08 05:11:55;;;;;;;13.17;5.20;;;2.40;1.00;;;;;;5051622;28;20404;-60
2022/12/08 05:14:21;;;;;;;11.13;4.23;;;0.90;1.00;;;;;;5060507;28;20379;-61
2022/12/08 05:16:46;;;;;;;13.40;4.47;;;0.90;1.00;;;;;;5069256;28;20837;-60
2022/12/08 05:19:14;;;;;;;10.80;4.50;;;2.30;1.00;;;;;;5069787;28;20795;-60
2022/12/08 05:21:40;;;;;;;13.80;4.53;;;0.90;1.00;;;;;;5069214;28;20474;-62
2022/12/08 05:24:06;;;;;;;11.50;4.90;;;0.90;1.00;;;;;;5070993;28;20749;-59
2022/12/08 05:26:32;;;;;;;13.40;4.60;;;0.90;1.00;;;;;;5072136;28;20449;-59
2022/12/08 05:28:57;;;;;;;12.68;5.50;;;0.90;14.50;;;;;;5072454;28;20391;-59
2022/12/08 05:31:23;;;;;;;14.30;6.28;;;0.90;1.00;;;;;;5072026;28;20403;-60
2022/12/08 05:33:50;;;;;;;11.05;5.07;;;0.90;1.00;;;;;;5052907;28;20393;-60
2022/12/08 05:36:16;;;;;;;17.58;6.45;;;1.00;1.00;;;;;;5052580;28;20467;-60
2022/12/08 05:38:42;;;;;;;13.93;5.65;;;1.10;1.00;;;;;;5052134;28;20377;-61
2022/12/08 05:41:12;;;;;;;12.48;4.80;;;1.00;99.90;;;;;;5052853;28;20873;-60
2022/12/08 05:43:37;;;;;;;13.83;5.20;;;1.00;99.90;;;;;;5052999;28;20467;-61
2022/12/08 05:46:04;;;;;;;12.63;5.07;;;1.00;99.90;;;;;;5051710;28;20842;-60
2022/12/08 05:48:29;;;;;;;13.93;6.07;;;0.90;99.90;;;;;;5052641;28;20385;-60
2022/12/08 05:50:55;;;;;;;14.37;5.43;;;0.90;99.90;;;;;;5051867;28;20397;-60
2022/12/08 05:53:21;;;;;;;14.75;6.30;;;0.90;1.00;;;;;;5052803;28;20443;-66
2022/12/08 05:55:47;;;;;;;14.48;6.00;;;0.90;99.90;;;;;;5052045;28;20385;-66
2022/12/08 05:58:18;;;;;;;13.85;5.15;;;1.10;1.00;;;;;;5052913;28;20461;-66
2022/12/08 06:00:45;;;;;;;12.07;5.40;;;0.90;1.00;;;;;;5034179;28;20390;-60
2022/12/08 06:03:11;;;;;;;15.40;4.80;;;0.90;1.00;;;;;;5052727;28;20381;-60
2022/12/08 06:05:37;;;;;;;12.43;5.28;;;0.90;99.90;;;;;;5052260;28;20405;-60
2022/12/08 06:08:03;;;;;;;12.82;5.30;;;0.90;1.00;;;;;;5052066;28;20920;-60
2022/12/08 06:10:28;;;;;;;14.98;5.47;;;0.80;1.00;;;;;;5052278;28;20385;-59
2022/12/08 06:12:54;;;;;;;15.95;7.05;;;0.90;1.00;;;;;;5051596;28;20385;-59
2022/12/08 06:15:20;;;;;;;13.73;6.20;;;0.90;1.00;;;;;;5051825;28;20465;-59
2022/12/08 06:17:45;;;;;;;14.40;6.10;;;0.90;1.00;;;;;;5051487;28;20420;-60
2022/12/08 06:20:11;;;;;;;15.55;6.97;;;1.00;1.00;;;;;;5051519;28;20386;-59
2022/12/08 06:22:37;;;;;;;14.70;6.67;;;1.10;99.90;;;;;;5051777;28;20385;-61
2022/12/08 06:25:03;;;;;;;14.60;6.30;;;1.00;99.90;;;;;;5051496;28;20955;-60
2022/12/08 06:27:29;;;;;;;16.60;6.43;;;0.90;1.00;;;;;;5051858;28;20408;-60
2022/12/08 06:29:55;;;;;;;14.18;5.63;;;0.90;1.00;;;;;;5050960;28;20386;-60
2022/12/08 06:32:21;;;;;;;13.40;6.50;;;0.90;1.00;;;;;;5052222;28;20409;-59
2022/12/08 06:34:46;;;;;;;13.30;5.70;;;2.30;99.90;;;;;;5051159;28;20397;-59
2022/12/08 06:37:12;;;;;;;17.87;7.10;;;0.90;99.90;;;;;;5051625;28;20386;-60
2022/12/08 06:39:38;;;;;;;13.63;5.15;;;0.90;1.00;;;;;;5051532;28;20389;-59
2022/12/08 06:44:48;;;;;;;13.75;5.80;;;0.80;99.90;;;;;;5091271;28;20405;-59
2022/12/08 06:47:14;;;;;;;13.50;5.75;;;0.60;1.00;;;;;;5092037;28;20909;-59
2022/12/08 06:49:40;;;;;;;13.60;6.13;;;0.60;99.90;;;;;;5091950;28;20374;-59
2022/12/08 06:52:05;;;;;;;13.50;6.00;;;0.60;1.00;;;;;;5090861;28;20850;-59
2022/12/08 06:54:31;;;;;;;16.42;6.50;;;0.60;54.90;;;;;;5091340;28;20729;-59
2022/12/08 06:56:56;;;;;;;14.27;6.32;;;0.70;47.60;;;;;;5090939;28;20400;-59
2022/12/08 06:59:24;;;;;;;15.37;5.80;;;0.70;99.90;;;;;;5092116;28;20412;-59
2022/12/08 07:01:50;;;;;;;11.00;5.28;;;0.80;99.90;;;;;;5090802;28;20386;-59
2022/12/08 07:04:16;;;;;;;13.75;6.50;;;0.90;99.90;;;;;;5076927;28;20484;-64
2022/12/08 07:06:42;;;;;;;11.48;5.57;;;0.90;99.90;;;;;;5047453;28;20405;-61
2022/12/08 07:09:07;;;;;;;14.65;6.72;;;1.00;38.20;;;;;;5070642;28;20384;-59
2022/12/08 07:11:33;;;;;;;13.90;5.97;;;1.10;15.30;;;;;;5070629;28;20770;-59
2022/12/08 07:13:59;;;;;;;19.17;5.80;;;1.80;1.00;;;;;;5070105;28;20949;-59
2022/12/08 07:16:24;;;;;;;14.75;6.50;;;1.10;1.00;;;;;;5071268;28;20384;-59
2022/12/08 07:18:50;;;;;;;12.50;6.10;;;1.20;1.00;;;;;;5070256;28;20407;-59
2022/12/08 07:21:16;;;;;;;13.57;5.53;;;1.30;99.90;;;;;;5071068;28;20426;-59
2022/12/08 07:23:44;;;;;;;12.87;5.70;;;1.20;1.60;;;;;;5070621;28;20387;-61
2022/12/08 07:26:11;;;;;;;13.70;5.85;;;1.30;99.90;;;;;;5070561;28;20408;-59
2022/12/08 07:28:39;;;;;;;18.83;6.73;;;1.40;1.00;;;;;;5070517;28;20431;-59
2022/12/08 07:31:06;;;;;;;19.27;6.53;;;1.40;99.90;;;;;;5070183;28;20376;-59
2022/12/08 07:33:32;;;;;;;15.93;6.85;;;3.10;1.00;;;;;;5070503;28;20865;-59
2022/12/08 07:36:00;;;;;;;17.58;7.43;;;1.40;1.00;;;;;;5069402;28;20942;-59
2022/12/08 07:38:26;;;;;;;17.15;6.25;;;1.50;12.00;;;;;;5070429;28;20384;-60
2022/12/08 07:40:52;;;;;;;17.05;6.90;;;1.50;1.00;;;;;;5069588;28;20391;-59
2022/12/08 07:43:19;;;;;;;14.60;6.90;;;1.50;1.00;;;;;;5070325;28;20452;-59
2022/12/08 07:45:44;;;;;;;16.92;7.18;;;1.60;99.90;;;;;;5069399;28;20392;-60
2022/12/08 07:48:10;;;;;;;11.82;5.40;;;1.60;1.00;;;;;;5051830;28;20395;-59
2022/12/08 07:50:36;;;;;;;13.13;5.77;;;1.60;1.00;;;;;;5070324;28;20474;-60
2022/12/08 07:53:02;;;;;;;15.35;6.72;;;1.60;1.00;;;;;;5070207;28;20391;-60
2022/12/08 07:55:27;;;;;;;18.25;6.70;;;1.60;1.00;;;;;;5070005;28;20728;-59
2022/12/08 07:57:53;;;;;;;17.93;7.40;;;1.70;1.00;;;;;;5069678;28;20367;-59
2022/12/08 08:00:19;;;;;;;14.60;5.90;;;1.70;99.90;;;;;;5069956;28;20376;-59
2022/12/08 08:02:45;;;;;;;15.38;6.10;;;1.70;99.90;;;;;;5069552;28;20394;-60
2022/12/08 08:05:11;;;;;;;13.30;5.50;;;1.70;1.00;;;;;;5070612;28;20411;-61
2022/12/08 08:07:37;;;;;;;16.05;6.35;;;1.80;99.90;;;;;;5069854;28;20415;-59
2022/12/08 08:10:04;;;;;;;14.13;5.40;;;1.80;99.90;;;;;;5070385;28;20660;-59
2022/12/08 08:12:29;;;;;;;13.77;6.18;;;1.90;99.90;;;;;;5069986;28;20860;-59
2022/12/08 08:14:55;;;;;;;12.52;5.40;;;1.90;99.90;;;;;;5069543;28;20376;-59
2022/12/08 08:17:21;;;;;;;15.97;6.17;;;1.90;70.90;;;;;;5070104;28;20384;-59
2022/12/08 08:19:46;;;;;;;14.65;6.60;;;1.90;1.00;;;;;;5069260;28;20929;-61
2022/12/08 08:22:12;;;;;;;13.13;6.07;;;2.00;1.00;;;;;;5069714;28;20375;-59
2022/12/08 08:24:37;;;;;;;20.10;6.50;;;2.00;1.00;;;;;;5070045;28;20449;-59
2022/12/08 08:27:03;;;;;;;14.00;6.10;;;2.20;12.50;;;;;;5069515;28;20871;-59
2022/12/08 08:29:29;;;;;;;18.95;8.45;;;2.20;1.00;;;;;;5068522;28;20395;-58
2022/12/08 08:31:54;;;;;;;18.23;8.27;;;2.30;99.90;;;;;;5069549;28;20395;-59
2022/12/08 08:34:20;;;;;;;19.48;7.32;;;2.30;99.90;;;;;;5069857;28;20402;-59
2022/12/08 08:36:46;;;;;;;16.35;6.68;;;2.30;99.90;;;;;;5069199;28;20881;-59
2022/12/08 08:39:12;;;;;;;12.77;5.50;;;3.90;99.90;;;;;;5070074;28;20449;-60
2022/12/08 08:41:38;;;;;;;16.47;6.87;;;2.40;1.00;;;;;;5069412;28;20456;-59
2022/12/08 08:44:04;;;;;;;15.60;6.27;;;2.40;1.00;;;;;;5069125;28;20901;-59
2022/12/08 08:46:30;;;;;;;13.23;6.00;;;2.50;1.00;;;;;;5069586;28;20391;-59
2022/12/08 08:48:56;;;;;;;14.18;6.40;;;2.80;1.00;;;;;;5069468;28;20368;-60
2022/12/08 08:51:22;;;;;;;13.57;5.97;;;3.50;1.00;;;;;;5069615;28;20376;-60
2022/12/08 08:53:48;;;;;;;12.98;5.93;;;;;;;;;;5069167;28;20860;-61
2022/12/08 08:56:20;;;;;;;12.93;5.47;;;6.80;99.90;;;;;;5069590;28;20376;-59
2022/12/08 08:58:51;;;;;;;13.60;5.70;;;8.10;1.00;;;;;;5070991;28;20931;-63
2022/12/08 09:01:23;;;;;;;13.48;6.25;;;10.70;1.00;;;;;;5073440;28;20383;-60
2022/12/08 09:03:49;;;;;;;15.52;6.50;;;10.00;1.00;;;;;;5072551;28;20449;-64
2022/12/08 09:06:15;;;;;;;13.07;6.38;;;11.30;1.00;;;;;;5073500;28;20423;-62
2022/12/08 09:08:42;;;;;;;12.85;6.10;;;12.50;1.00;;;;;;5073308;28;20379;-60
2022/12/08 09:11:08;;;;;;;15.18;7.10;;;13.30;99.90;;;;;;5072484;28;20852;-60
2022/12/08 09:13:35;;;;;;;13.10;6.30;;;13.90;99.90;;;;;;5073292;28;20417;-61
2022/12/08 09:16:02;;;;;;;12.57;6.68;;;14.50;99.90;;;;;;5072526;28;20482;-61
2022/12/08 09:18:28;;;;;;;14.85;6.78;;;14.90;99.90;;;;;;5072793;28;20376;-60
2022/12/08 09:20:54;;;;;;;13.73;7.22;;;14.90;99.90;;;;;;5072172;28;20379;-61
2022/12/08 09:23:19;;;;;;;18.10;7.33;;;14.80;99.90;;;;;;5073106;28;20478;-61
2022/12/08 09:25:45;;;;;;;18.08;7.60;;;15.00;99.90;;;;;;5072433;28;20880;-61
2022/12/08 09:28:12;;;;;;;14.87;7.10;;;14.90;99.90;;;;;;5055464;28;20379;-61
2022/12/08 09:30:38;;;;;;;12.93;7.30;;;14.90;99.90;;;;;;5073188;28;20376;-61
2022/12/08 09:33:03;;;;;;;12.73;7.53;;;15.00;99.90;;;;;;5071875;28;20833;-61
2022/12/08 09:35:29;;;;;;;13.90;7.20;;;14.50;99.90;;;;;;5072411;28;20410;-61
2022/12/08 09:37:54;;;;;;;12.27;7.10;;;14.00;99.90;;;;;;5071891;28;20851;-60
2022/12/08 09:40:22;;;;;;;16.10;7.95;;;13.70;99.90;;;;;;5072625;28;20390;-61
2022/12/08 09:42:56;;;;;;;13.52;7.35;;;13.80;99.90;;;;;;5072417;28;20534;-61
2022/12/08 09:45:25;;;;;;;14.90;7.32;;;14.40;99.90;;;;;;5072947;28;20545;-61
2022/12/08 09:48:03;;;;;;;13.17;7.37;;;14.50;99.90;;;;;;5071590;28;20383;-61
2022/12/08 09:50:54;;;;;;;13.90;7.93;;;14.40;99.90;;;;;;5072559;28;20488;-61
2022/12/08 09:53:33;;;;;;;14.48;7.40;;;14.90;99.90;;;;;;5072134;28;20379;-61
2022/12/08 09:56:13;;;;;;;16.57;7.80;;;14.30;99.90;;;;;;5071439;28;20388;-62
2022/12/08 09:58:47;;;;;;;11.65;6.95;;;13.70;99.90;;;;;;5072253;28;20737;-61
2022/12/08 10:01:13;;;;;;;13.90;7.20;;;13.70;99.90;;;;;;5072229;28;20383;-61
2022/12/08 10:03:40;;;;;;;15.48;7.40;;;13.80;99.90;;;;;;5072110;28;20728;-62
2022/12/08 10:06:20;;;;;;;12.27;6.85;;;13.80;99.90;;;;;;5071677;28;21032;-61
2022/12/08 10:09:24;;;;;;;12.73;7.30;;;13.90;99.90;;;;;;5071380;28;20538;-64
2022/12/08 10:11:58;;;;;;;13.75;7.00;;;14.00;99.90;;;;;;5071274;28;20757;-62
2022/12/08 10:14:48;;;;;;;13.75;7.07;;;13.50;99.90;;;;;;5072010;28;20392;-61
2022/12/08 10:17:33;;;;;;;13.23;6.60;;;12.50;99.90;;;;;;5072010;28;20410;-61
2022/12/08 10:20:12;;;;;;;13.60;6.75;;;12.20;99.90;;;;;;5071551;28;20441;-61
2022/12/08 10:22:37;;;;;;;13.23;7.05;;;12.50;99.90;;;;;;5072442;28;20383;-61
2022/12/08 10:25:21;;;;;;;11.80;6.45;;;12.50;99.90;;;;;;5071274;28;20456;-61
2022/12/08 10:27:54;;;;;;;14.10;6.70;;;12.60;99.90;;;;;;5071400;28;20455;-64
2022/12/08 10:30:21;;;;;;;13.17;6.20;;;12.40;99.90;;;;;;5072530;28;20429;-61
2022/12/08 10:32:52;;;;;;;13.43;6.67;;;11.30;99.90;;;;;;5071500;28;20398;-61
2022/12/08 10:35:21;;;;;;;11.85;5.97;;;9.90;99.90;;;;;;5070996;28;20494;-58
2022/12/08 10:37:58;;;;;;;14.48;6.90;;;9.10;99.90;;;;;;5071437;28;20369;-64
2022/12/08 10:40:28;;;;;;;15.20;6.70;;;8.60;99.90;;;;;;5071740;28;20860;-61
2022/12/08 10:42:56;;;;;;;15.37;5.90;;;8.20;99.90;;;;;;5053403;28;20392;-60
2022/12/08 10:45:30;;;;;;;13.95;6.35;;;7.80;99.90;;;;;;5071408;28;20442;-60
2022/12/08 10:48:00;;;;;;;13.43;5.78;;;7.60;99.90;;;;;;5071245;28;20380;-60
2022/12/08 10:50:43;;;;;;;13.18;6.28;;;7.30;99.90;;;;;;5071519;28;20425;-60
2022/12/08 10:53:11;;;;;;;14.73;6.10;;;6.90;99.90;;;;;;5070997;28;20384;-60
2022/12/08 10:56:00;;;;;;;13.75;6.15;;;6.70;99.90;;;;;;5071423;28;20722;-60
2022/12/08 10:58:34;;;;;;;13.05;6.18;;;6.70;99.90;;;;;;5059219;28;20387;-60
2022/12/08 11:01:08;;;;;;;13.18;6.22;;;6.50;99.90;;;;;;5071124;28;20384;-60
2022/12/08 11:03:53;;;;;;;14.55;6.30;;;6.30;99.90;;;;;;5071270;28;20387;-60
2022/12/08 11:06:29;;;;;;;16.67;6.32;;;6.40;99.90;;;;;;5070944;28;20513;-59
2022/12/08 11:09:00;;;;;;;12.00;6.30;;;6.40;99.90;;;;;;5070347;28;20380;-59
2022/12/08 11:11:45;;;;;;;15.25;6.40;;;6.30;99.90;;;;;;5071976;28;20855;-59
2022/12/08 11:14:27;;;;;;;15.40;7.63;;;7.10;99.90;;;;;;5070774;28;20465;-59
2022/12/08 11:17:02;;;;;;;15.05;5.68;;;6.30;99.90;;;;;;5071062;28;20399;-60
2022/12/08 11:19:27;;;;;;;11.32;4.80;;;6.40;99.90;;;;;;5071058;28;20473;-59
2022/12/08 11:21:53;;;;;;;14.43;6.33;;;6.50;99.90;;;;;;5069206;28;20430;-59
2022/12/08 11:24:24;;;;;;;13.68;5.50;;;6.40;99.90;;;;;;5070754;28;20395;-59
2022/12/08 11:27:04;;;;;;;12.60;6.00;;;7.50;99.90;;;;;;5070673;28;20854;-62
2022/12/08 11:29:32;;;;;;;12.93;4.90;;;6.30;99.90;;;;;;5070324;28;20407;-60
2022/12/08 11:32:13;;;;;;;14.55;6.05;;;6.30;99.90;;;;;;5069924;28;20462;-59
2022/12/08 11:34:54;;;;;;;14.00;6.10;;;6.10;99.90;;;;;;5070359;28;20398;-59
2022/12/08 11:37:25;;;;;;;14.73;5.13;;;5.90;99.90;;;;;;5070512;28;20876;-59
2022/12/08 11:39:53;;;;;;;13.68;5.45;;;5.80;99.90;;;;;;5069763;28;20387;-63
2022/12/08 11:42:23;;;;;;;13.90;4.77;;;5.80;99.90;;;;;;5070513;28;20469;-59
2022/12/08 11:44:59;;;;;;;10.90;4.90;;;5.90;99.90;;;;;;5069497;28;20786;-60
2022/12/08 11:47:36;;;;;;;13.50;5.38;;;5.80;99.90;;;;;;5070277;28;20487;-59
2022/12/08 11:50:32;;;;;;;11.35;4.68;;;5.70;99.90;;;;;;5069636;28;20380;-60
2022/12/08 11:53:00;;;;;;;12.57;4.50;;;5.80;99.90;;;;;;5069730;28;20729;-60
2022/12/08 11:55:38;;;;;;;10.70;4.55;;;5.70;99.90;;;;;;5070095;28;20428;-60
2022/12/08 11:58:10;;;;;;;12.23;4.50;;;5.70;99.90;;;;;;5070056;28;20386;-60
2022/12/08 12:00:36;;;;;;;12.77;5.07;;;5.80;99.90;;;;;;5070362;28;20446;-60
2022/12/08 12:03:28;;;;;;;14.85;5.43;;;5.80;99.90;;;;;;5069645;28;20518;-60
2022/12/08 12:06:14;;;;;;;12.20;5.40;;;5.80;99.90;;;;;;5069233;28;20484;-60
2022/12/08 12:09:03;;;;;;;11.88;4.50;;;5.80;99.90;;;;;;5070060;28;20473;-60
2022/12/08 12:14:40;;;;;;;10.45;4.50;;;5.50;99.90;;;;;;5069955;28;20399;-60
2022/12/08 12:17:28;;;;;;;12.30;5.10;;;5.40;99.90;;;;;;5069430;28;20380;-60
2022/12/08 12:19:56;;;;;;;10.98;4.53;;;5.40;99.90;;;;;;5069584;28;20852;-60
2022/12/08 12:22:23;;;;;;;13.07;4.82;;;5.40;99.90;;;;;;5070379;28;20376;-59
2022/12/08 12:24:51;;;;;;;12.57;5.20;;;5.50;99.90;;;;;;5069837;28;20403;-62
2022/12/08 12:27:31;;;;;;;10.80;4.30;;;5.20;99.90;;;;;;5069603;28;20856;-59
2022/12/08 12:29:59;;;;;;;11.55;4.47;;;5.90;99.90;;;;;;5069505;28;20376;-59
2022/12/08 12:32:38;;;;;;;10.77;4.28;;;5.10;99.90;;;;;;5069800;28;20482;-57
2022/12/08 12:35:12;;;;;;;12.00;5.10;;;5.30;99.90;;;;;;5069138;28;20886;-59
2022/12/08 12:37:41;;;;;;;11.57;5.25;;;5.30;99.90;;;;;;5069703;28;20392;-59
2022/12/08 12:40:20;;;;;;;11.27;4.78;;;5.50;99.90;;;;;;5068800;28;21262;-59
2022/12/08 12:43:10;;;;;;;12.32;4.80;;;5.40;99.90;;;;;;5070068;28;20408;-59
2022/12/08 12:45:42;;;;;;;11.77;4.70;;;5.40;99.90;;;;;;5069083;28;20809;-59
2022/12/08 12:48:07;;;;;;;11.48;5.10;;;5.50;99.90;;;;;;5069202;28;20656;-59
2022/12/08 12:50:33;;;;;;;12.27;5.47;;;6.40;99.90;;;;;;5069438;28;20383;-59
2022/12/08 12:53:14;;;;;;;12.73;5.03;;;6.50;99.90;;;;;;5069303;28;20378;-59
2022/12/08 12:55:58;;;;;;;12.82;4.70;;;5.10;99.90;;;;;;5069985;28;20423;-59
2022/12/08 12:58:26;;;;;;;12.25;5.30;;;5.20;99.90;;;;;;5069522;28;20386;-60
2022/12/08 13:01:10;;;;;;;11.30;4.88;;;5.50;99.90;;;;;;5068631;28;20412;-62
2022/12/08 13:03:46;;;;;;;10.77;4.10;;;5.20;99.90;;;;;;5068962;28;20457;-59
2022/12/08 13:06:25;;;;;;;13.20;4.80;;;5.30;99.90;;;;;;5050786;28;20430;-59
2022/12/08 13:08:53;;;;;;;12.50;5.00;;;5.60;99.90;;;;;;5069131;28;20433;-62
2022/12/08 13:11:20;;;;;;;11.68;5.20;;;5.30;99.90;;;;;;5069824;28;20466;-59
2022/12/08 13:14:03;;;;;;;12.43;4.82;;;5.30;99.90;;;;;;5069135;28;20391;-59
2022/12/08 13:16:38;;;;;;;11.40;5.00;;;5.30;99.90;;;;;;5069645;28;20371;-59